sensor_id;sensor_type;location;lat;lon;timestamp;P1;durP1;ratioP1;P2;durP2;ratioP2
27402;SDS011;14862;49.494;8.530;2023-08-30T00:01:38;3.77;;;3.47;;
27402;SDS011;14862;49.494;8.530;2023-08-30T00:04:03;4.32;;;3.38;;
27402;SDS011;14862;49.494;8.530;2023-08-30T00:06:30;3.70;;;3.40;;
27402;SDS011;14862;49.494;8.530;2023-08-30T00:08:56;4.47;;;3.70;;
27402;SDS011;14862;49.494;8.530;2023-08-30T00:11:22;4.07;;;3.13;;
27402;SDS011;14862;49.494;8.530;2023-08-30T00:13:47;3.60;;;3.30;;
27402;SDS011;14862;49.494;8.530;2023-08-30T00:16:13;4.82;;;3.88;;
27402;SDS011;14862;49.494;8.530;2023-08-30T00:18:38;3.80;;;3.40;;
27402;SDS011;14862;49.494;8.530;2023-08-30T00:21:03;4.78;;;3.53;;
27402;SDS011;14862;49.494;8.530;2023-08-30T00:23:28;7.77;;;4.03;;
27402;SDS011;14862;49.494;8.530;2023-08-30T00:25:53;4.82;;;3.50;;
27402;SDS011;14862;49.494;8.530;2023-08-30T00:28:19;6.07;;;3.20;;
27402;SDS011;14862;49.494;8.530;2023-08-30T00:30:44;4.13;;;3.58;;
27402;SDS011;14862;49.494;8.530;2023-08-30T00:33:09;5.88;;;3.92;;
27402;SDS011;14862;49.494;8.530;2023-08-30T00:35:34;4.13;;;3.72;;
27402;SDS011;14862;49.494;8.530;2023-08-30T00:38:00;4.20;;;3.83;;
27402;SDS011;14862;49.494;8.530;2023-08-30T00:40:25;5.68;;;3.75;;
27402;SDS011;14862;49.494;8.530;2023-08-30T00:42:51;4.50;;;4.05;;
27402;SDS011;14862;49.494;8.530;2023-08-30T00:45:16;8.07;;;4.30;;
27402;SDS011;14862;49.494;8.530;2023-08-30T00:47:42;7.78;;;4.18;;
27402;SDS011;14862;49.494;8.530;2023-08-30T00:50:07;5.53;;;4.28;;
27402;SDS011;14862;49.494;8.530;2023-08-30T00:52:32;6.47;;;4.00;;
27402;SDS011;14862;49.494;8.530;2023-08-30T00:54:58;4.97;;;4.18;;
27402;SDS011;14862;49.494;8.530;2023-08-30T00:57:23;9.80;;;4.47;;
27402;SDS011;14862;49.494;8.530;2023-08-30T00:59:49;5.10;;;4.60;;
27402;SDS011;14862;49.494;8.530;2023-08-30T01:02:16;6.85;;;4.63;;
27402;SDS011;14862;49.494;8.530;2023-08-30T01:04:41;5.20;;;4.30;;
27402;SDS011;14862;49.494;8.530;2023-08-30T01:07:06;5.77;;;4.20;;
27402;SDS011;14862;49.494;8.530;2023-08-30T01:09:31;6.00;;;4.57;;
27402;SDS011;14862;49.494;8.530;2023-08-30T01:12:00;4.95;;;4.45;;
27402;SDS011;14862;49.494;8.530;2023-08-30T01:14:30;5.10;;;4.60;;
27402;SDS011;14862;49.494;8.530;2023-08-30T01:16:58;8.05;;;5.20;;
27402;SDS011;14862;49.494;8.530;2023-08-30T01:24:48;4.95;;;4.13;;
27402;SDS011;14862;49.494;8.530;2023-08-30T01:27:18;4.85;;;4.30;;
27402;SDS011;14862;49.494;8.530;2023-08-30T01:29:44;4.25;;;3.95;;
27402;SDS011;14862;49.494;8.530;2023-08-30T01:32:09;7.90;;;4.45;;
27402;SDS011;14862;49.494;8.530;2023-08-30T01:34:36;4.43;;;4.03;;
27402;SDS011;14862;49.494;8.530;2023-08-30T01:37:02;5.57;;;4.10;;
27402;SDS011;14862;49.494;8.530;2023-08-30T01:39:28;4.85;;;4.35;;
27402;SDS011;14862;49.494;8.530;2023-08-30T01:41:54;7.53;;;4.40;;
27402;SDS011;14862;49.494;8.530;2023-08-30T01:44:24;5.82;;;4.35;;
27402;SDS011;14862;49.494;8.530;2023-08-30T01:46:50;4.88;;;4.43;;
27402;SDS011;14862;49.494;8.530;2023-08-30T01:49:15;5.25;;;4.85;;
27402;SDS011;14862;49.494;8.530;2023-08-30T01:51:40;5.10;;;4.60;;
27402;SDS011;14862;49.494;8.530;2023-08-30T01:54:06;4.45;;;4.05;;
27402;SDS011;14862;49.494;8.530;2023-08-30T01:56:32;6.45;;;4.60;;
27402;SDS011;14862;49.494;8.530;2023-08-30T01:58:58;8.52;;;4.78;;
27402;SDS011;14862;49.494;8.530;2023-08-30T02:01:23;5.75;;;5.13;;
27402;SDS011;14862;49.494;8.530;2023-08-30T02:03:48;5.28;;;4.78;;
27402;SDS011;14862;49.494;8.530;2023-08-30T02:06:33;6.10;;;4.65;;
27402;SDS011;14862;49.494;8.530;2023-08-30T02:11:29;8.10;;;4.85;;
27402;SDS011;14862;49.494;8.530;2023-08-30T02:13:58;7.03;;;5.28;;
27402;SDS011;14862;49.494;8.530;2023-08-30T02:16:23;5.57;;;5.07;;
27402;SDS011;14862;49.494;8.530;2023-08-30T02:18:50;9.32;;;5.55;;
27402;SDS011;14862;49.494;8.530;2023-08-30T02:21:15;5.75;;;5.25;;
27402;SDS011;14862;49.494;8.530;2023-08-30T02:23:41;6.65;;;5.60;;
27402;SDS011;14862;49.494;8.530;2023-08-30T02:26:06;5.85;;;5.25;;
27402;SDS011;14862;49.494;8.530;2023-08-30T02:28:31;5.87;;;5.17;;
27402;SDS011;14862;49.494;8.530;2023-08-30T02:30:56;5.70;;;5.20;;
27402;SDS011;14862;49.494;8.530;2023-08-30T02:33:22;5.95;;;5.40;;
27402;SDS011;14862;49.494;8.530;2023-08-30T02:35:47;5.72;;;5.18;;
27402;SDS011;14862;49.494;8.530;2023-08-30T02:38:12;6.20;;;5.60;;
27402;SDS011;14862;49.494;8.530;2023-08-30T02:40:37;5.63;;;5.20;;
27402;SDS011;14862;49.494;8.530;2023-08-30T02:43:03;6.03;;;5.18;;
27402;SDS011;14862;49.494;8.530;2023-08-30T02:45:28;8.13;;;5.80;;
27402;SDS011;14862;49.494;8.530;2023-08-30T02:47:56;6.78;;;6.15;;
27402;SDS011;14862;49.494;8.530;2023-08-30T02:50:22;6.32;;;5.75;;
27402;SDS011;14862;49.494;8.530;2023-08-30T02:52:47;6.03;;;5.43;;
27402;SDS011;14862;49.494;8.530;2023-08-30T02:55:12;7.47;;;6.37;;
27402;SDS011;14862;49.494;8.530;2023-08-30T02:57:38;6.75;;;5.95;;
27402;SDS011;14862;49.494;8.530;2023-08-30T03:00:03;8.10;;;6.28;;
27402;SDS011;14862;49.494;8.530;2023-08-30T03:02:31;8.82;;;7.05;;
27402;SDS011;14862;49.494;8.530;2023-08-30T03:04:56;7.15;;;6.30;;
27402;SDS011;14862;49.494;8.530;2023-08-30T03:07:21;9.35;;;5.82;;
27402;SDS011;14862;49.494;8.530;2023-08-30T03:09:51;7.57;;;6.57;;
27402;SDS011;14862;49.494;8.530;2023-08-30T03:12:16;8.50;;;7.20;;
27402;SDS011;14862;49.494;8.530;2023-08-30T03:14:41;8.03;;;7.13;;
27402;SDS011;14862;49.494;8.530;2023-08-30T03:17:07;9.03;;;6.47;;
27402;SDS011;14862;49.494;8.530;2023-08-30T03:19:32;8.35;;;7.22;;
27402;SDS011;14862;49.494;8.530;2023-08-30T03:21:57;8.97;;;7.07;;
27402;SDS011;14862;49.494;8.530;2023-08-30T03:24:22;8.25;;;7.40;;
27402;SDS011;14862;49.494;8.530;2023-08-30T03:26:47;8.18;;;6.85;;
27402;SDS011;14862;49.494;8.530;2023-08-30T03:29:13;7.20;;;6.60;;
27402;SDS011;14862;49.494;8.530;2023-08-30T03:31:38;8.05;;;7.25;;
27402;SDS011;14862;49.494;8.530;2023-08-30T03:34:03;8.87;;;7.97;;
27402;SDS011;14862;49.494;8.530;2023-08-30T03:36:29;8.05;;;7.35;;
27402;SDS011;14862;49.494;8.530;2023-08-30T03:38:54;8.00;;;7.28;;
27402;SDS011;14862;49.494;8.530;2023-08-30T03:41:19;8.07;;;7.37;;
27402;SDS011;14862;49.494;8.530;2023-08-30T03:43:44;9.90;;;7.97;;
27402;SDS011;14862;49.494;8.530;2023-08-30T03:46:09;9.90;;;7.77;;
27402;SDS011;14862;49.494;8.530;2023-08-30T03:48:36;9.38;;;8.52;;
27402;SDS011;14862;49.494;8.530;2023-08-30T03:51:02;10.48;;;9.38;;
27402;SDS011;14862;49.494;8.530;2023-08-30T03:53:27;9.97;;;7.87;;
27402;SDS011;14862;49.494;8.530;2023-08-30T03:55:52;9.45;;;8.55;;
27402;SDS011;14862;49.494;8.530;2023-08-30T03:58:18;9.85;;;9.00;;
27402;SDS011;14862;49.494;8.530;2023-08-30T04:00:43;9.50;;;8.60;;
27402;SDS011;14862;49.494;8.530;2023-08-30T04:03:09;10.02;;;8.85;;
27402;SDS011;14862;49.494;8.530;2023-08-30T04:05:35;9.77;;;8.77;;
27402;SDS011;14862;49.494;8.530;2023-08-30T04:08:04;10.32;;;9.32;;
27402;SDS011;14862;49.494;8.530;2023-08-30T04:10:29;11.25;;;9.18;;
27402;SDS011;14862;49.494;8.530;2023-08-30T04:12:54;10.25;;;9.20;;
27402;SDS011;14862;49.494;8.530;2023-08-30T04:15:20;10.02;;;9.02;;
27402;SDS011;14862;49.494;8.530;2023-08-30T04:17:45;11.40;;;9.67;;
27402;SDS011;14862;49.494;8.530;2023-08-30T04:20:10;11.60;;;10.40;;
27402;SDS011;14862;49.494;8.530;2023-08-30T04:22:36;9.93;;;9.00;;
27402;SDS011;14862;49.494;8.530;2023-08-30T04:25:01;12.15;;;8.85;;
27402;SDS011;14862;49.494;8.530;2023-08-30T04:27:26;11.18;;;10.07;;
27402;SDS011;14862;49.494;8.530;2023-08-30T04:29:52;10.23;;;9.13;;
27402;SDS011;14862;49.494;8.530;2023-08-30T04:32:17;11.20;;;10.10;;
27402;SDS011;14862;49.494;8.530;2023-08-30T04:34:43;11.40;;;10.27;;
27402;SDS011;14862;49.494;8.530;2023-08-30T04:37:08;10.27;;;9.30;;
27402;SDS011;14862;49.494;8.530;2023-08-30T04:39:33;11.63;;;10.25;;
27402;SDS011;14862;49.494;8.530;2023-08-30T04:41:58;12.70;;;9.98;;
27402;SDS011;14862;49.494;8.530;2023-08-30T04:44:24;11.43;;;10.02;;
27402;SDS011;14862;49.494;8.530;2023-08-30T04:46:52;11.23;;;10.05;;
27402;SDS011;14862;49.494;8.530;2023-08-30T04:49:17;11.18;;;10.07;;
27402;SDS011;14862;49.494;8.530;2023-08-30T04:51:42;11.37;;;10.17;;
27402;SDS011;14862;49.494;8.530;2023-08-30T04:54:08;10.63;;;9.63;;
27402;SDS011;14862;49.494;8.530;2023-08-30T04:56:33;10.83;;;9.73;;
27402;SDS011;14862;49.494;8.530;2023-08-30T04:58:58;10.43;;;9.43;;
27402;SDS011;14862;49.494;8.530;2023-08-30T05:01:23;10.40;;;9.30;;
27402;SDS011;14862;49.494;8.530;2023-08-30T05:03:49;11.80;;;9.93;;
27402;SDS011;14862;49.494;8.530;2023-08-30T05:06:14;11.75;;;10.50;;
27402;SDS011;14862;49.494;8.530;2023-08-30T05:08:41;12.15;;;10.07;;
27402;SDS011;14862;49.494;8.530;2023-08-30T05:11:06;11.95;;;10.60;;
27402;SDS011;14862;49.494;8.530;2023-08-30T05:13:31;11.50;;;10.30;;
27402;SDS011;14862;49.494;8.530;2023-08-30T05:15:57;11.20;;;9.93;;
27402;SDS011;14862;49.494;8.530;2023-08-30T05:18:22;10.80;;;9.70;;
27402;SDS011;14862;49.494;8.530;2023-08-30T05:20:48;13.45;;;10.20;;
27402;SDS011;14862;49.494;8.530;2023-08-30T05:23:13;13.48;;;8.95;;
27402;SDS011;14862;49.494;8.530;2023-08-30T05:25:38;11.03;;;9.43;;
27402;SDS011;14862;49.494;8.530;2023-08-30T05:28:03;11.63;;;9.25;;
27402;SDS011;14862;49.494;8.530;2023-08-30T05:30:29;10.20;;;9.30;;
27402;SDS011;14862;49.494;8.530;2023-08-30T05:32:54;10.27;;;9.18;;
27402;SDS011;14862;49.494;8.530;2023-08-30T05:35:19;13.02;;;9.57;;
27402;SDS011;14862;49.494;8.530;2023-08-30T05:37:44;12.88;;;9.27;;
27402;SDS011;14862;49.494;8.530;2023-08-30T05:40:10;12.70;;;9.10;;
27402;SDS011;14862;49.494;8.530;2023-08-30T05:42:35;10.60;;;9.25;;
27402;SDS011;14862;49.494;8.530;2023-08-30T05:45:01;11.40;;;8.93;;
27402;SDS011;14862;49.494;8.530;2023-08-30T05:47:26;9.90;;;8.90;;
27402;SDS011;14862;49.494;8.530;2023-08-30T05:49:51;10.88;;;8.02;;
27402;SDS011;14862;49.494;8.530;2023-08-30T05:52:17;10.07;;;8.20;;
27402;SDS011;14862;49.494;8.530;2023-08-30T05:54:43;8.27;;;7.47;;
27402;SDS011;14862;49.494;8.530;2023-08-30T05:57:09;8.13;;;7.30;;
27402;SDS011;14862;49.494;8.530;2023-08-30T05:59:34;8.40;;;7.63;;
27402;SDS011;14862;49.494;8.530;2023-08-30T06:02:00;9.65;;;7.05;;
27402;SDS011;14862;49.494;8.530;2023-08-30T06:04:25;9.02;;;7.10;;
27402;SDS011;14862;49.494;8.530;2023-08-30T06:06:50;9.13;;;7.60;;
27402;SDS011;14862;49.494;8.530;2023-08-30T06:09:15;7.63;;;6.83;;
27402;SDS011;14862;49.494;8.530;2023-08-30T06:11:42;6.93;;;6.28;;
27402;SDS011;14862;49.494;8.530;2023-08-30T06:14:07;6.63;;;6.03;;
27402;SDS011;14862;49.494;8.530;2023-08-30T06:16:32;6.23;;;5.63;;
27402;SDS011;14862;49.494;8.530;2023-08-30T06:18:57;8.13;;;5.10;;
27402;SDS011;14862;49.494;8.530;2023-08-30T06:21:25;5.72;;;5.22;;
27402;SDS011;14862;49.494;8.530;2023-08-30T06:23:51;8.82;;;6.15;;
27402;SDS011;14862;49.494;8.530;2023-08-30T06:26:16;7.05;;;5.82;;
27402;SDS011;14862;49.494;8.530;2023-08-30T06:28:42;7.60;;;5.10;;
27402;SDS011;14862;49.494;8.530;2023-08-30T06:31:08;6.80;;;5.00;;
27402;SDS011;14862;49.494;8.530;2023-08-30T06:33:33;5.68;;;5.18;;
27402;SDS011;14862;49.494;8.530;2023-08-30T06:35:58;6.87;;;5.40;;
27402;SDS011;14862;49.494;8.530;2023-08-30T06:38:23;5.37;;;4.83;;
27402;SDS011;14862;49.494;8.530;2023-08-30T06:40:48;4.88;;;4.47;;
27402;SDS011;14862;49.494;8.530;2023-08-30T06:43:14;11.45;;;4.75;;
27402;SDS011;14862;49.494;8.530;2023-08-30T06:45:41;6.10;;;5.50;;
27402;SDS011;14862;49.494;8.530;2023-08-30T06:48:06;9.38;;;5.57;;
27402;SDS011;14862;49.494;8.530;2023-08-30T06:50:32;5.97;;;5.43;;
27402;SDS011;14862;49.494;8.530;2023-08-30T06:52:58;4.95;;;4.47;;
27402;SDS011;14862;49.494;8.530;2023-08-30T06:55:23;6.60;;;5.30;;
27402;SDS011;14862;49.494;8.530;2023-08-30T06:57:48;6.75;;;5.90;;
27402;SDS011;14862;49.494;8.530;2023-08-30T07:00:15;6.35;;;5.20;;
27402;SDS011;14862;49.494;8.530;2023-08-30T07:02:40;5.38;;;4.88;;
27402;SDS011;14862;49.494;8.530;2023-08-30T07:05:05;5.20;;;4.70;;
27402;SDS011;14862;49.494;8.530;2023-08-30T07:07:31;7.22;;;4.70;;
27402;SDS011;14862;49.494;8.530;2023-08-30T07:09:56;4.22;;;3.80;;
27402;SDS011;14862;49.494;8.530;2023-08-30T07:12:22;3.75;;;3.42;;
27402;SDS011;14862;49.494;8.530;2023-08-30T07:14:47;6.88;;;3.75;;
27402;SDS011;14862;49.494;8.530;2023-08-30T07:17:12;4.47;;;3.83;;
27402;SDS011;14862;49.494;8.530;2023-08-30T07:19:37;5.20;;;3.83;;
27402;SDS011;14862;49.494;8.530;2023-08-30T07:22:03;3.67;;;3.35;;
27402;SDS011;14862;49.494;8.530;2023-08-30T07:24:29;4.88;;;3.30;;
27402;SDS011;14862;49.494;8.530;2023-08-30T07:26:54;3.28;;;2.97;;
27402;SDS011;14862;49.494;8.530;2023-08-30T07:29:19;4.40;;;3.03;;
27402;SDS011;14862;49.494;8.530;2023-08-30T07:31:44;4.20;;;2.90;;
27402;SDS011;14862;49.494;8.530;2023-08-30T07:34:10;3.93;;;3.63;;
27402;SDS011;14862;49.494;8.530;2023-08-30T07:36:35;3.27;;;2.63;;
27402;SDS011;14862;49.494;8.530;2023-08-30T07:39:00;3.47;;;3.17;;
27402;SDS011;14862;49.494;8.530;2023-08-30T07:41:27;4.05;;;3.70;;
27402;SDS011;14862;49.494;8.530;2023-08-30T07:43:52;5.32;;;3.60;;
27402;SDS011;14862;49.494;8.530;2023-08-30T07:46:17;3.20;;;2.90;;
27402;SDS011;14862;49.494;8.530;2023-08-30T07:48:43;3.35;;;3.00;;
27402;SDS011;14862;49.494;8.530;2023-08-30T07:51:08;3.90;;;3.60;;
27402;SDS011;14862;49.494;8.530;2023-08-30T07:53:33;3.20;;;2.90;;
27402;SDS011;14862;49.494;8.530;2023-08-30T07:55:59;4.27;;;3.00;;
27402;SDS011;14862;49.494;8.530;2023-08-30T07:58:24;4.53;;;3.70;;
27402;SDS011;14862;49.494;8.530;2023-08-30T08:00:52;4.70;;;3.03;;
27402;SDS011;14862;49.494;8.530;2023-08-30T08:03:18;4.72;;;3.63;;
27402;SDS011;14862;49.494;8.530;2023-08-30T08:05:43;4.53;;;2.70;;
27402;SDS011;14862;49.494;8.530;2023-08-30T08:08:08;5.90;;;3.67;;
27402;SDS011;14862;49.494;8.530;2023-08-30T08:10:35;4.05;;;3.38;;
27402;SDS011;14862;49.494;8.530;2023-08-30T08:13:01;3.72;;;2.63;;
27402;SDS011;14862;49.494;8.530;2023-08-30T08:15:26;3.75;;;3.00;;
27402;SDS011;14862;49.494;8.530;2023-08-30T08:17:51;3.30;;;2.95;;
27402;SDS011;14862;49.494;8.530;2023-08-30T08:20:16;4.30;;;2.60;;
27402;SDS011;14862;49.494;8.530;2023-08-30T08:22:42;3.60;;;3.30;;
27402;SDS011;14862;49.494;8.530;2023-08-30T08:25:07;4.33;;;3.07;;
27402;SDS011;14862;49.494;8.530;2023-08-30T08:27:35;3.28;;;3.05;;
27402;SDS011;14862;49.494;8.530;2023-08-30T08:30:00;3.75;;;2.80;;
27402;SDS011;14862;49.494;8.530;2023-08-30T08:32:25;3.53;;;3.23;;
27402;SDS011;14862;49.494;8.530;2023-08-30T08:34:50;3.50;;;3.00;;
27402;SDS011;14862;49.494;8.530;2023-08-30T08:37:15;3.00;;;2.80;;
27402;SDS011;14862;49.494;8.530;2023-08-30T08:39:41;3.03;;;2.72;;
27402;SDS011;14862;49.494;8.530;2023-08-30T08:42:07;3.42;;;3.13;;
27402;SDS011;14862;49.494;8.530;2023-08-30T08:44:34;2.45;;;2.25;;
27402;SDS011;14862;49.494;8.530;2023-08-30T08:47:00;3.03;;;2.72;;
27402;SDS011;14862;49.494;8.530;2023-08-30T08:49:26;5.60;;;2.67;;
27402;SDS011;14862;49.494;8.530;2023-08-30T08:51:53;2.20;;;2.00;;
27402;SDS011;14862;49.494;8.530;2023-08-30T08:54:18;3.22;;;2.35;;
27402;SDS011;14862;49.494;8.530;2023-08-30T08:56:44;3.42;;;3.13;;
27402;SDS011;14862;49.494;8.530;2023-08-30T08:59:09;5.15;;;2.75;;
27402;SDS011;14862;49.494;8.530;2023-08-30T09:01:35;3.42;;;3.15;;
27402;SDS011;14862;49.494;8.530;2023-08-30T09:04:05;3.13;;;2.83;;
27402;SDS011;14862;49.494;8.530;2023-08-30T09:06:31;2.28;;;2.00;;
27402;SDS011;14862;49.494;8.530;2023-08-30T09:08:56;3.13;;;2.73;;
27402;SDS011;14862;49.494;8.530;2023-08-30T09:11:21;3.20;;;2.40;;
27402;SDS011;14862;49.494;8.530;2023-08-30T09:13:47;3.00;;;2.50;;
27402;SDS011;14862;49.494;8.530;2023-08-30T09:16:12;3.03;;;2.60;;
27402;SDS011;14862;49.494;8.530;2023-08-30T09:18:38;2.72;;;2.25;;
27402;SDS011;14862;49.494;8.530;2023-08-30T09:21:07;3.60;;;3.30;;
27402;SDS011;14862;49.494;8.530;2023-08-30T09:23:32;2.75;;;2.33;;
27402;SDS011;14862;49.494;8.530;2023-08-30T09:25:59;3.33;;;2.97;;
27402;SDS011;14862;49.494;8.530;2023-08-30T09:28:24;5.30;;;2.70;;
27402;SDS011;14862;49.494;8.530;2023-08-30T09:30:50;4.27;;;2.20;;
27402;SDS011;14862;49.494;8.530;2023-08-30T09:33:29;2.40;;;2.20;;
27402;SDS011;14862;49.494;8.530;2023-08-30T09:35:55;4.57;;;2.65;;
27402;SDS011;14862;49.494;8.530;2023-08-30T09:38:21;3.33;;;2.30;;
27402;SDS011;14862;49.494;8.530;2023-08-30T09:40:46;4.00;;;3.60;;
27402;SDS011;14862;49.494;8.530;2023-08-30T09:43:12;4.30;;;2.70;;
27402;SDS011;14862;49.494;8.530;2023-08-30T09:45:37;2.72;;;2.38;;
27402;SDS011;14862;49.494;8.530;2023-08-30T09:48:03;2.50;;;2.30;;
27402;SDS011;14862;49.494;8.530;2023-08-30T09:50:29;6.13;;;2.00;;
27402;SDS011;14862;49.494;8.530;2023-08-30T09:52:56;3.70;;;1.85;;
27402;SDS011;14862;49.494;8.530;2023-08-30T09:55:21;3.13;;;2.60;;
27402;SDS011;14862;49.494;8.530;2023-08-30T09:57:47;3.08;;;2.22;;
27402;SDS011;14862;49.494;8.530;2023-08-30T10:00:13;2.17;;;1.95;;
27402;SDS011;14862;49.494;8.530;2023-08-30T10:02:42;2.75;;;1.88;;
27402;SDS011;14862;49.494;8.530;2023-08-30T10:05:09;3.03;;;2.38;;
27402;SDS011;14862;49.494;8.530;2023-08-30T10:07:35;3.33;;;2.25;;
27402;SDS011;14862;49.494;8.530;2023-08-30T10:10:02;4.50;;;2.03;;
27402;SDS011;14862;49.494;8.530;2023-08-30T10:12:29;2.40;;;2.03;;
27402;SDS011;14862;49.494;8.530;2023-08-30T10:14:55;3.13;;;2.08;;
27402;SDS011;14862;49.494;8.530;2023-08-30T10:17:20;2.47;;;2.20;;
27402;SDS011;14862;49.494;8.530;2023-08-30T10:19:47;2.17;;;2.00;;
27402;SDS011;14862;49.494;8.530;2023-08-30T10:22:12;2.53;;;2.08;;
27402;SDS011;14862;49.494;8.530;2023-08-30T10:24:43;4.65;;;2.10;;
27402;SDS011;14862;49.494;8.530;2023-08-30T10:27:09;3.85;;;2.25;;
27402;SDS011;14862;49.494;8.530;2023-08-30T10:29:36;4.93;;;2.13;;
27402;SDS011;14862;49.494;8.530;2023-08-30T10:32:03;2.35;;;2.10;;
27402;SDS011;14862;49.494;8.530;2023-08-30T10:34:31;3.67;;;2.40;;
27402;SDS011;14862;49.494;8.530;2023-08-30T10:36:56;2.47;;;2.28;;
27402;SDS011;14862;49.494;8.530;2023-08-30T10:39:27;2.55;;;2.35;;
27402;SDS011;14862;49.494;8.530;2023-08-30T10:41:57;3.45;;;2.80;;
27402;SDS011;14862;49.494;8.530;2023-08-30T10:44:23;4.13;;;2.25;;
27402;SDS011;14862;49.494;8.530;2023-08-30T10:46:52;2.47;;;2.28;;
27402;SDS011;14862;49.494;8.530;2023-08-30T10:49:18;3.50;;;2.40;;
27402;SDS011;14862;49.494;8.530;2023-08-30T10:51:43;3.58;;;2.17;;
27402;SDS011;14862;49.494;8.530;2023-08-30T10:54:10;3.17;;;2.30;;
27402;SDS011;14862;49.494;8.530;2023-08-30T10:56:35;2.40;;;2.20;;
27402;SDS011;14862;49.494;8.530;2023-08-30T10:59:15;2.33;;;2.10;;
27402;SDS011;14862;49.494;8.530;2023-08-30T11:01:40;3.47;;;2.10;;
27402;SDS011;14862;49.494;8.530;2023-08-30T11:04:06;2.87;;;2.10;;
27402;SDS011;14862;49.494;8.530;2023-08-30T11:06:31;2.97;;;2.13;;
27402;SDS011;14862;49.494;8.530;2023-08-30T11:08:56;2.13;;;1.93;;
27402;SDS011;14862;49.494;8.530;2023-08-30T11:11:21;2.97;;;2.10;;
27402;SDS011;14862;49.494;8.530;2023-08-30T11:13:47;6.60;;;2.47;;
27402;SDS011;14862;49.494;8.530;2023-08-30T11:16:12;3.47;;;2.10;;
27402;SDS011;14862;49.494;8.530;2023-08-30T11:18:37;4.30;;;2.63;;
27402;SDS011;14862;49.494;8.530;2023-08-30T11:21:07;2.80;;;2.30;;
27402;SDS011;14862;49.494;8.530;2023-08-30T11:23:34;2.22;;;2.03;;
27402;SDS011;14862;49.494;8.530;2023-08-30T11:25:59;2.63;;;1.98;;
27402;SDS011;14862;49.494;8.530;2023-08-30T11:28:25;2.20;;;2.10;;
27402;SDS011;14862;49.494;8.530;2023-08-30T11:30:54;2.83;;;2.50;;
27402;SDS011;14862;49.494;8.530;2023-08-30T11:33:19;2.88;;;2.55;;
27402;SDS011;14862;49.494;8.530;2023-08-30T11:35:45;4.95;;;2.50;;
27402;SDS011;14862;49.494;8.530;2023-08-30T11:38:10;4.20;;;2.75;;
27402;SDS011;14862;49.494;8.530;2023-08-30T11:40:36;3.38;;;2.40;;
27402;SDS011;14862;49.494;8.530;2023-08-30T11:43:01;2.42;;;2.03;;
27402;SDS011;14862;49.494;8.530;2023-08-30T11:45:27;3.70;;;1.80;;
27402;SDS011;14862;49.494;8.530;2023-08-30T11:47:53;3.58;;;1.90;;
27402;SDS011;14862;49.494;8.530;2023-08-30T11:50:18;2.28;;;2.08;;
27402;SDS011;14862;49.494;8.530;2023-08-30T11:52:45;3.22;;;1.90;;
27402;SDS011;14862;49.494;8.530;2023-08-30T11:55:10;2.42;;;2.08;;
27402;SDS011;14862;49.494;8.530;2023-08-30T11:57:37;3.50;;;1.73;;
27402;SDS011;14862;49.494;8.530;2023-08-30T12:00:11;2.67;;;1.88;;
27402;SDS011;14862;49.494;8.530;2023-08-30T12:02:37;1.80;;;1.63;;
27402;SDS011;14862;49.494;8.530;2023-08-30T12:05:03;2.33;;;2.13;;
27402;SDS011;14862;49.494;8.530;2023-08-30T12:07:29;2.25;;;1.88;;
27402;SDS011;14862;49.494;8.530;2023-08-30T12:10:05;2.85;;;2.00;;
27402;SDS011;14862;49.494;8.530;2023-08-30T12:12:30;1.85;;;1.67;;
27402;SDS011;14862;49.494;8.530;2023-08-30T12:14:56;1.60;;;1.50;;
27402;SDS011;14862;49.494;8.530;2023-08-30T12:17:21;2.03;;;1.85;;
27402;SDS011;14862;49.494;8.530;2023-08-30T12:19:54;1.53;;;1.43;;
27402;SDS011;14862;49.494;8.530;2023-08-30T12:22:20;3.27;;;1.93;;
27402;SDS011;14862;49.494;8.530;2023-08-30T12:24:45;3.17;;;1.67;;
27402;SDS011;14862;49.494;8.530;2023-08-30T12:27:11;5.32;;;1.80;;
27402;SDS011;14862;49.494;8.530;2023-08-30T12:29:36;4.25;;;1.60;;
27402;SDS011;14862;49.494;8.530;2023-08-30T12:32:01;1.87;;;1.77;;
27402;SDS011;14862;49.494;8.530;2023-08-30T12:34:26;1.88;;;1.77;;
27402;SDS011;14862;49.494;8.530;2023-08-30T12:36:52;2.87;;;1.70;;
27402;SDS011;14862;49.494;8.530;2023-08-30T12:39:17;2.58;;;1.90;;
27402;SDS011;14862;49.494;8.530;2023-08-30T12:41:42;1.80;;;1.70;;
27402;SDS011;14862;49.494;8.530;2023-08-30T12:44:08;3.00;;;1.58;;
27402;SDS011;14862;49.494;8.530;2023-08-30T12:46:33;3.20;;;1.65;;
27402;SDS011;14862;49.494;8.530;2023-08-30T12:48:58;1.98;;;1.50;;
27402;SDS011;14862;49.494;8.530;2023-08-30T12:51:23;2.00;;;1.77;;
27402;SDS011;14862;49.494;8.530;2023-08-30T12:53:49;2.33;;;1.80;;
27402;SDS011;14862;49.494;8.530;2023-08-30T12:56:14;3.20;;;1.77;;
27402;SDS011;14862;49.494;8.530;2023-08-30T12:58:39;2.30;;;1.43;;
27402;SDS011;14862;49.494;8.530;2023-08-30T13:01:04;1.47;;;1.37;;
27402;SDS011;14862;49.494;8.530;2023-08-30T13:03:29;4.97;;;1.73;;
27402;SDS011;14862;49.494;8.530;2023-08-30T13:05:54;1.80;;;1.70;;
27402;SDS011;14862;49.494;8.530;2023-08-30T13:08:20;1.65;;;1.55;;
27402;SDS011;14862;49.494;8.530;2023-08-30T13:10:45;2.90;;;1.40;;
27402;SDS011;14862;49.494;8.530;2023-08-30T13:13:10;1.47;;;1.37;;
27402;SDS011;14862;49.494;8.530;2023-08-30T13:15:35;2.87;;;1.60;;
27402;SDS011;14862;49.494;8.530;2023-08-30T13:18:00;3.00;;;1.57;;
27402;SDS011;14862;49.494;8.530;2023-08-30T13:20:26;1.73;;;1.60;;
27402;SDS011;14862;49.494;8.530;2023-08-30T13:22:51;1.70;;;1.60;;
27402;SDS011;14862;49.494;8.530;2023-08-30T13:25:16;1.77;;;1.67;;
27402;SDS011;14862;49.494;8.530;2023-08-30T13:27:41;2.50;;;1.38;;
27402;SDS011;14862;49.494;8.530;2023-08-30T13:30:07;2.85;;;1.73;;
27402;SDS011;14862;49.494;8.530;2023-08-30T13:32:32;3.38;;;1.70;;
27402;SDS011;14862;49.494;8.530;2023-08-30T13:34:58;1.73;;;1.63;;
27402;SDS011;14862;49.494;8.530;2023-08-30T13:37:24;1.88;;;1.60;;
27402;SDS011;14862;49.494;8.530;2023-08-30T13:39:49;2.20;;;1.50;;
27402;SDS011;14862;49.494;8.530;2023-08-30T13:42:15;2.67;;;1.52;;
27402;SDS011;14862;49.494;8.530;2023-08-30T13:44:40;2.20;;;1.30;;
27402;SDS011;14862;49.494;8.530;2023-08-30T13:47:07;1.70;;;1.60;;
27402;SDS011;14862;49.494;8.530;2023-08-30T13:49:32;1.90;;;1.65;;
27402;SDS011;14862;49.494;8.530;2023-08-30T13:51:58;2.40;;;1.93;;
27402;SDS011;14862;49.494;8.530;2023-08-30T13:54:23;2.58;;;1.67;;
27402;SDS011;14862;49.494;8.530;2023-08-30T13:56:49;1.98;;;1.77;;
27402;SDS011;14862;49.494;8.530;2023-08-30T13:59:15;3.15;;;1.92;;
27402;SDS011;14862;49.494;8.530;2023-08-30T14:01:40;2.25;;;1.83;;
27402;SDS011;14862;49.494;8.530;2023-08-30T14:04:05;4.07;;;1.90;;
27402;SDS011;14862;49.494;8.530;2023-08-30T14:06:31;2.28;;;1.88;;
27402;SDS011;14862;49.494;8.530;2023-08-30T14:08:57;3.97;;;2.00;;
27402;SDS011;14862;49.494;8.530;2023-08-30T14:11:22;1.97;;;1.87;;
27402;SDS011;14862;49.494;8.530;2023-08-30T14:13:47;4.20;;;1.88;;
27402;SDS011;14862;49.494;8.530;2023-08-30T14:16:13;4.37;;;2.00;;
27402;SDS011;14862;49.494;8.530;2023-08-30T14:18:38;2.43;;;2.03;;
27402;SDS011;14862;49.494;8.530;2023-08-30T14:21:03;3.20;;;1.63;;
27402;SDS011;14862;49.494;8.530;2023-08-30T14:23:29;2.85;;;2.05;;
27402;SDS011;14862;49.494;8.530;2023-08-30T14:25:58;2.20;;;1.95;;
27402;SDS011;14862;49.494;8.530;2023-08-30T14:28:23;4.07;;;2.25;;
27402;SDS011;14862;49.494;8.530;2023-08-30T14:30:48;3.75;;;2.28;;
27402;SDS011;14862;49.494;8.530;2023-08-30T14:33:14;5.53;;;2.10;;
27402;SDS011;14862;49.494;8.530;2023-08-30T14:35:42;1.93;;;1.73;;
27402;SDS011;14862;49.494;8.530;2023-08-30T14:38:07;2.80;;;2.10;;
27402;SDS011;14862;49.494;8.530;2023-08-30T14:40:33;2.10;;;1.98;;
27402;SDS011;14862;49.494;8.530;2023-08-30T14:42:58;2.13;;;1.93;;
27402;SDS011;14862;49.494;8.530;2023-08-30T14:45:23;3.17;;;2.40;;